createdAt,value
2022-10-07T00:01:05.781Z,97843.16
2022-10-07T00:03:33.936Z,97837.97
2022-10-07T00:06:08.365Z,97834.47
2022-10-07T00:08:37.381Z,97835.13
2022-10-07T00:11:07.486Z,97832.81
2022-10-07T00:13:37.241Z,97829.06
2022-10-07T00:16:04.930Z,97829.84
2022-10-07T00:18:32.262Z,97822.41
2022-10-07T00:21:03.027Z,97832.19
2022-10-07T00:23:32.122Z,97835.50
2022-10-07T00:26:03.848Z,97830.09
2022-10-07T00:28:31.679Z,97823.25
2022-10-07T00:31:01.045Z,97823.47
2022-10-07T00:33:32.979Z,97824.31
2022-10-07T00:36:00.799Z,97820.78
2022-10-07T00:38:29.465Z,97815.97
2022-10-07T00:40:58.980Z,97819.72
2022-10-07T00:43:29.467Z,97817.19
2022-10-07T00:46:00.511Z,97813.22
2022-10-07T00:48:30.767Z,97818.16
2022-10-07T00:51:01.023Z,97814.88
2022-10-07T00:53:29.520Z,97821.53
2022-10-07T00:56:00.615Z,97812.84
2022-10-07T00:58:29.667Z,97818.00
2022-10-07T01:00:57.779Z,97820.94
2022-10-07T01:03:25.264Z,97818.00
2022-10-07T01:05:52.625Z,97815.75
2022-10-07T01:08:21.172Z,97818.25
2022-10-07T01:10:58.009Z,97810.94
2022-10-07T01:13:35.215Z,97809.53
2022-10-07T01:16:09.773Z,97803.69
2022-10-07T01:18:46.561Z,97811.78
2022-10-07T01:21:26.911Z,97808.03
2022-10-07T01:24:07.561Z,97805.13
2022-10-07T01:26:56.625Z,97801.56
2022-10-07T01:29:31.323Z,97810.28
2022-10-07T01:32:04.474Z,97805.94
2022-10-07T01:34:33.633Z,97808.63
2022-10-07T01:37:03.643Z,97805.31
2022-10-07T01:39:36.871Z,97803.69
2022-10-07T01:42:06.385Z,97802.84
2022-10-07T01:44:34.330Z,97808.47
2022-10-07T01:47:01.860Z,97806.84
2022-10-07T01:49:29.759Z,97799.31
2022-10-07T01:52:13.145Z,97796.34
2022-10-07T01:54:56.091Z,97786.97
2022-10-07T01:57:36.120Z,97794.00
2022-10-07T02:00:07.575Z,97785.69
2022-10-07T02:03:16.381Z,97789.22
2022-10-07T02:05:49.781Z,97789.22
2022-10-07T02:08:30.039Z,97792.78
2022-10-07T02:11:13.630Z,97791.97
2022-10-07T02:13:56.039Z,97787.41
2022-10-07T02:16:28.940Z,97786.50
2022-10-07T02:18:59.102Z,97778.72
2022-10-07T02:21:29.664Z,97778.78
2022-10-07T02:23:58.813Z,97777.03
2022-10-07T02:26:29.068Z,97772.25
2022-10-07T02:29:02.107Z,97781.53
2022-10-07T02:31:33.983Z,97779.22
2022-10-07T02:34:04.650Z,97782.31
2022-10-07T02:36:34.980Z,97791.00
2022-10-07T02:39:05.210Z,97784.78
2022-10-07T02:41:38.083Z,97787.72
2022-10-07T02:44:21.895Z,97788.53
2022-10-07T02:46:54.222Z,97782.38
2022-10-07T02:49:24.383Z,97779.81
2022-10-07T02:51:57.250Z,97781.72
2022-10-07T02:54:29.332Z,97785.47
2022-10-07T02:56:58.220Z,97781.47
2022-10-07T02:59:28.860Z,97787.09
2022-10-07T03:01:59.837Z,97782.75
2022-10-07T03:04:27.325Z,97783.56
2022-10-07T03:06:55.092Z,97772.75
2022-10-07T03:09:24.693Z,97776.50
2022-10-07T03:11:52.087Z,97777.78
2022-10-07T03:14:19.527Z,97779.44
2022-10-07T03:16:48.464Z,97779.44
2022-10-07T03:19:16.002Z,97783.63
2022-10-07T03:21:50.913Z,97780.09
2022-10-07T03:24:18.301Z,97780.94
2022-10-07T03:26:47.842Z,97793.81
2022-10-07T03:29:15.413Z,97782.78
2022-10-07T03:31:43.924Z,97785.78
2022-10-07T03:34:12.825Z,97785.94
2022-10-07T03:36:42.960Z,97787.25
2022-10-07T03:39:11.564Z,97782.41
2022-10-07T03:41:38.946Z,97785.56
2022-10-07T03:44:06.527Z,97781.75
2022-10-07T03:46:34.544Z,97773.88
2022-10-07T03:49:02.239Z,97781.75
2022-10-07T03:51:32.259Z,97771.94
2022-10-07T03:54:01.497Z,97775.25
2022-10-07T03:56:32.327Z,97779.00
2022-10-07T03:59:01.177Z,97778.72
2022-10-07T04:01:28.981Z,97773.47
2022-10-07T04:03:58.973Z,97775.06
2022-10-07T04:06:26.854Z,97776.28
2022-10-07T04:08:56.266Z,97776.19
2022-10-07T04:11:24.513Z,97778.38
2022-10-07T04:13:54.910Z,97775.44
2022-10-07T04:16:24.297Z,97772.97
2022-10-07T04:18:55.230Z,97771.72
2022-10-07T04:21:23.716Z,97772.59
2022-10-07T04:23:51.442Z,97776.06
2022-10-07T04:26:20.325Z,97773.66
2022-10-07T04:28:49.293Z,97769.44
2022-10-07T04:31:22.652Z,97772.41
2022-10-07T04:34:09.151Z,97771.56
2022-10-07T04:36:40.447Z,97760.22
2022-10-07T04:39:10.556Z,97767.56
2022-10-07T04:41:44.258Z,97759.84
2022-10-07T04:44:19.831Z,97754.66
2022-10-07T04:46:59.066Z,97754.56
2022-10-07T04:49:29.502Z,97761.03
2022-10-07T04:51:59.176Z,97759.47
2022-10-07T04:54:31.310Z,97761.34
2022-10-07T04:57:01.569Z,97756.19
2022-10-07T04:59:30.191Z,97760.44
2022-10-07T05:01:58.700Z,97773.34
2022-10-07T05:04:27.060Z,97761.91
2022-10-07T05:06:55.221Z,97771.06
2022-10-07T05:09:23.674Z,97769.16
2022-10-07T05:11:52.722Z,97767.41
2022-10-07T05:14:22.674Z,97767.44
2022-10-07T05:16:52.319Z,97763.63
2022-10-07T05:19:22.539Z,97762.69
2022-10-07T05:21:50.317Z,97764.63
2022-10-07T05:24:18.906Z,97761.63
2022-10-07T05:26:46.279Z,97755.19
2022-10-07T05:29:13.828Z,97756.00
2022-10-07T05:31:46.976Z,97754.50
2022-10-07T05:34:17.533Z,97748.28
2022-10-07T05:36:45.201Z,97747.06
2022-10-07T05:39:13.466Z,97737.31
2022-10-07T05:41:52.938Z,97737.25
2022-10-07T05:44:25.930Z,97728.38
2022-10-07T05:46:57.697Z,97726.38
2022-10-07T05:49:25.486Z,97718.16
2022-10-07T05:51:52.911Z,97717.28
2022-10-07T05:54:20.678Z,97717.28
2022-10-07T05:56:49.006Z,97708.25
2022-10-07T05:59:18.716Z,97712.84
2022-10-07T06:01:47.520Z,97696.56
2022-10-07T06:04:21.344Z,97697.50
2022-10-07T06:06:50.622Z,97695.94
2022-10-07T06:09:18.414Z,97695.97
2022-10-07T06:11:45.949Z,97702.47
2022-10-07T06:14:15.412Z,97699.19
2022-10-07T06:16:42.946Z,97698.78
2022-10-07T06:19:10.901Z,97696.16
2022-10-07T06:21:40.248Z,97699.63
2022-10-07T06:24:07.995Z,97699.16
2022-10-07T06:26:35.647Z,97691.78
2022-10-07T06:29:05.021Z,97691.31
2022-10-07T06:31:32.739Z,97690.19
2022-10-07T06:34:03.688Z,97689.69
2022-10-07T06:36:32.982Z,97689.09
2022-10-07T06:39:02.175Z,97683.25
2022-10-07T06:41:36.656Z,97676.94
2022-10-07T06:44:16.251Z,97685.84
2022-10-07T06:46:46.532Z,97683.16
2022-10-07T06:49:14.283Z,97678.53
2022-10-07T06:51:41.909Z,97683.03
2022-10-07T06:54:11.332Z,97679.28
2022-10-07T06:56:39.013Z,97678.97
2022-10-07T06:59:07.537Z,97673.31
2022-10-07T07:01:48.979Z,97672.59
2022-10-07T07:04:16.662Z,97667.44
2022-10-07T07:06:44.845Z,97666.88
2022-10-07T07:09:13.815Z,97676.56
2022-10-07T07:11:43.440Z,97684.84
2022-10-07T07:14:18.233Z,97668.31
2022-10-07T07:16:51.950Z,97672.03
2022-10-07T07:19:19.509Z,97673.91
2022-10-07T07:21:49.064Z,97671.00
2022-10-07T07:24:21.941Z,97670.63
2022-10-07T07:26:49.423Z,97679.91
2022-10-07T07:29:16.849Z,97668.81
2022-10-07T07:31:48.716Z,97672.03
2022-10-07T07:34:16.808Z,97668.34
2022-10-07T07:36:47.834Z,97667.78
2022-10-07T07:39:18.212Z,97660.06
2022-10-07T07:41:52.616Z,97665.59
2022-10-07T07:44:22.866Z,97672.69
2022-10-07T07:46:53.367Z,97671.16
2022-10-07T07:49:23.434Z,97656.00
2022-10-07T07:51:51.218Z,97657.91
2022-10-07T07:54:26.413Z,97656.22
2022-10-07T07:56:55.843Z,97659.00
2022-10-07T07:59:25.233Z,97658.81
2022-10-07T08:01:54.542Z,97656.88
2022-10-07T08:04:22.287Z,97649.06
2022-10-07T08:06:50.195Z,97660.44
2022-10-07T08:09:18.242Z,97655.31
2022-10-07T08:11:47.760Z,97656.97
2022-10-07T08:14:18.617Z,97656.00
2022-10-07T08:16:50.358Z,97653.34
2022-10-07T08:19:17.925Z,97657.78
2022-10-07T08:21:45.301Z,97652.44
2022-10-07T08:24:17.454Z,97651.28
2022-10-07T08:26:45.408Z,97661.91
2022-10-07T08:29:14.440Z,97650.28
2022-10-07T08:31:43.508Z,97655.22
2022-10-07T08:34:12.889Z,97640.94
2022-10-07T08:36:40.795Z,97650.94
2022-10-07T08:39:08.170Z,97647.69
2022-10-07T08:41:42.392Z,97650.38
2022-10-07T08:44:19.023Z,97651.75
2022-10-07T08:47:00.936Z,97645.56
2022-10-07T08:49:37.209Z,97646.38
2022-10-07T08:52:19.299Z,97646.63
2022-10-07T08:54:46.830Z,97639.34
2022-10-07T08:57:19.756Z,97643.75
2022-10-07T08:59:51.437Z,97649.16
2022-10-07T09:02:29.241Z,97641.78
2022-10-07T09:05:05.159Z,97634.88
2022-10-07T09:07:36.237Z,97642.94
2022-10-07T09:10:24.140Z,97640.38
2022-10-07T09:12:57.306Z,97633.00
2022-10-07T09:15:34.723Z,97634.50
2022-10-07T09:18:10.845Z,97626.25
2022-10-07T09:20:44.682Z,97630.72
2022-10-07T09:23:14.889Z,97629.06
2022-10-07T09:25:44.656Z,97631.22
2022-10-07T09:28:12.848Z,97627.09
2022-10-07T09:30:41.311Z,97627.88
2022-10-07T09:33:14.996Z,97619.03
2022-10-07T09:35:56.647Z,97626.03
2022-10-07T09:38:33.488Z,97628.75
2022-10-07T09:41:16.380Z,97622.53
2022-10-07T09:43:57.407Z,97627.56
2022-10-07T09:46:46.048Z,97623.03
2022-10-07T09:49:39.923Z,97615.75
2022-10-07T09:52:16.466Z,97614.97
2022-10-07T09:54:45.541Z,97622.53
2022-10-07T09:57:25.958Z,97615.81
2022-10-07T10:00:24.535Z,97618.19
2022-10-07T10:02:55.338Z,97623.69
2022-10-07T10:05:28.222Z,97626.47
2022-10-07T10:08:02.626Z,97632.03
2022-10-07T10:10:31.759Z,97640.72
2022-10-07T10:13:00.672Z,97648.47
2022-10-07T10:15:38.189Z,97646.13
2022-10-07T10:18:41.193Z,97654.41
2022-10-07T10:21:26.967Z,97639.84
2022-10-07T10:23:57.183Z,97631.69
2022-10-07T10:26:49.892Z,97633.66
2022-10-07T10:29:37.230Z,97628.91
2022-10-07T10:32:55.595Z,97628.72
2022-10-07T10:35:27.947Z,97622.38
2022-10-07T10:38:16.042Z,97621.31
2022-10-07T10:40:52.828Z,97624.59
2022-10-07T10:43:29.393Z,97624.97
2022-10-07T10:46:16.074Z,97621.22
2022-10-07T10:48:45.527Z,97610.81
2022-10-07T10:51:25.398Z,97615.84
2022-10-07T10:54:05.978Z,97617.22
2022-10-07T10:56:38.438Z,97618.44
2022-10-07T10:59:34.839Z,97617.88
2022-10-07T11:02:29.331Z,97617.88
2022-10-07T11:05:01.092Z,97628.25
2022-10-07T11:07:33.053Z,97619.50
2022-10-07T11:10:05.812Z,97619.56
2022-10-07T11:12:39.950Z,97628.84
2022-10-07T11:15:15.911Z,97622.13
2022-10-07T11:17:46.298Z,97618.72
2022-10-07T11:20:19.001Z,97629.25
2022-10-07T11:22:53.002Z,97622.88
2022-10-07T11:25:29.039Z,97615.66
2022-10-07T11:28:07.336Z,97614.16
2022-10-07T11:30:42.980Z,97616.38
2022-10-07T11:33:17.895Z,97613.34
2022-10-07T11:35:51.802Z,97619.00
2022-10-07T11:38:22.681Z,97616.94
2022-10-07T11:40:54.011Z,97609.19
2022-10-07T11:43:27.894Z,97605.09
2022-10-07T11:46:00.258Z,97607.00
2022-10-07T11:48:34.674Z,97603.00
2022-10-07T11:51:04.514Z,97604.03
2022-10-07T11:53:36.167Z,97611.75
2022-10-07T11:56:14.680Z,97598.66
2022-10-07T11:58:43.612Z,97605.59
2022-10-07T12:01:31.151Z,97608.75
2022-10-07T12:04:17.640Z,97599.59
2022-10-07T12:07:18.280Z,97597.81
2022-10-07T12:10:15.000Z,97605.31
2022-10-07T12:12:52.841Z,97600.88
2022-10-07T12:15:35.321Z,97601.38
2022-10-07T12:18:38.329Z,97605.59
2022-10-07T12:21:08.439Z,97607.25
2022-10-07T12:23:45.489Z,97605.50
2022-10-07T12:26:47.236Z,97599.31
2022-10-07T12:29:52.991Z,97605.41
2022-10-07T12:32:53.527Z,97601.91
2022-10-07T12:35:51.507Z,97604.69
2022-10-07T12:38:31.236Z,97609.81
2022-10-07T12:41:12.064Z,97607.69
2022-10-07T12:43:48.717Z,97600.63
2022-10-07T12:46:20.657Z,97596.97
2022-10-07T12:48:56.594Z,97603.78
2022-10-07T12:51:28.672Z,97606.84
2022-10-07T12:53:58.314Z,97609.56
2022-10-07T12:56:29.744Z,97605.19
2022-10-07T12:59:17.453Z,97609.81
2022-10-07T13:02:03.074Z,97601.00
2022-10-07T13:05:04.852Z,97609.34
2022-10-07T13:08:09.913Z,97599.00
2022-10-07T13:10:58.308Z,97602.28
2022-10-07T13:13:33.878Z,97606.41
2022-10-07T13:16:07.342Z,97608.13
2022-10-07T13:18:40.960Z,97605.09
2022-10-07T13:21:17.463Z,97614.38
2022-10-07T13:23:51.064Z,97609.47
2022-10-07T13:26:20.518Z,97614.66
2022-10-07T13:28:50.797Z,97617.16
2022-10-07T13:31:21.749Z,97606.19
2022-10-07T13:33:50.120Z,97605.06
2022-10-07T13:36:21.936Z,97613.34
2022-10-07T13:38:50.816Z,97611.69
2022-10-07T13:41:26.699Z,97606.50
2022-10-07T13:43:58.338Z,97603.78
2022-10-07T13:46:29.440Z,97603.78
2022-10-07T13:48:57.976Z,97606.88
2022-10-07T13:51:31.893Z,97600.06
2022-10-07T13:54:01.720Z,97612.53
2022-10-07T13:56:33.426Z,97613.44
2022-10-07T13:59:02.685Z,97611.78
2022-10-07T14:01:32.307Z,97612.16
2022-10-07T14:04:16.949Z,97603.69
2022-10-07T14:06:55.181Z,97608.03
2022-10-07T14:09:33.643Z,97606.97
2022-10-07T14:12:05.566Z,97604.25
2022-10-07T14:14:37.171Z,97610.94
2022-10-07T14:17:10.641Z,97606.84
2022-10-07T14:19:39.600Z,97608.16
2022-10-07T14:22:19.457Z,97602.84
2022-10-07T14:24:55.246Z,97598.91
2022-10-07T14:28:07.992Z,97607.03
2022-10-07T14:30:37.292Z,97602.38
2022-10-07T14:33:11.840Z,97598.91
2022-10-07T14:35:39.250Z,97597.47
2022-10-07T14:38:26.636Z,97599.34
2022-10-07T14:40:54.316Z,97592.59
2022-10-07T14:43:21.709Z,97595.59
2022-10-07T14:45:49.119Z,97590.50
2022-10-07T14:48:16.520Z,97592.06
2022-10-07T14:50:44.030Z,97594.63
2022-10-07T14:53:16.278Z,97594.69
2022-10-07T14:55:45.619Z,97592.59
2022-10-07T14:58:13.133Z,97588.25
2022-10-07T15:00:40.469Z,97582.84
2022-10-07T15:03:07.829Z,97586.59
2022-10-07T15:05:35.235Z,97576.53
2022-10-07T15:08:02.791Z,97580.16
2022-10-07T15:10:30.217Z,97584.38
2022-10-07T15:12:59.037Z,97584.97
2022-10-07T15:15:26.563Z,97577.59
2022-10-07T15:17:54.120Z,97575.50
2022-10-07T15:20:21.669Z,97581.28
2022-10-07T15:22:51.022Z,97569.41
2022-10-07T15:25:18.838Z,97570.84
2022-10-07T15:27:46.272Z,97566.50
2022-10-07T15:30:15.571Z,97569.41
2022-10-07T15:32:43.662Z,97569.78
2022-10-07T15:35:11.649Z,97568.97
2022-10-07T15:37:39.250Z,97570.34
2022-10-07T15:40:08.163Z,97569.56
2022-10-07T15:42:35.609Z,97571.44
2022-10-07T15:45:03.027Z,97563.31
2022-10-07T15:47:31.994Z,97558.97
2022-10-07T15:49:59.436Z,97564.75
2022-10-07T15:52:27.563Z,97564.31
2022-10-07T15:54:55.047Z,97569.72
2022-10-07T15:57:22.748Z,97564.53
2022-10-07T15:59:50.209Z,97558.91
2022-10-07T16:02:19.296Z,97556.44
2022-10-07T16:04:48.499Z,97559.72
2022-10-07T16:07:16.848Z,97566.41
2022-10-07T16:09:44.190Z,97554.41
2022-10-07T16:12:11.688Z,97562.06
2022-10-07T16:14:39.460Z,97553.16
2022-10-07T16:17:07.369Z,97560.41
2022-10-07T16:19:34.925Z,97561.00
2022-10-07T16:22:06.828Z,97561.00
2022-10-07T16:24:35.464Z,97553.38
2022-10-07T16:27:03.211Z,97551.84
2022-10-07T16:29:30.645Z,97547.75
2022-10-07T16:31:59.402Z,97550.59
2022-10-07T16:34:28.054Z,97548.56
2022-10-07T16:36:57.030Z,97545.63
2022-10-07T16:39:26.204Z,97546.91
2022-10-07T16:41:55.836Z,97539.63
2022-10-07T16:44:23.502Z,97541.88
2022-10-07T16:46:50.950Z,97539.63
2022-10-07T16:49:18.639Z,97542.25
2022-10-07T16:51:46.169Z,97541.66
2022-10-07T16:54:15.700Z,97544.09
2022-10-07T16:56:46.534Z,97543.06
2022-10-07T16:59:19.723Z,97541.41
2022-10-07T17:01:50.623Z,97545.53
2022-10-07T17:04:18.365Z,97537.44
2022-10-07T17:06:46.721Z,97540.34
2022-10-07T17:09:14.773Z,97532.25
2022-10-07T17:11:42.402Z,97537.66
2022-10-07T17:14:13.609Z,97533.53
2022-10-07T17:16:42.716Z,97534.94
2022-10-07T17:19:12.906Z,97533.75
2022-10-07T17:21:41.018Z,97534.25
2022-10-07T17:24:08.834Z,97538.31
2022-10-07T17:26:37.244Z,97533.19
2022-10-07T17:29:07.462Z,97535.41
2022-10-07T17:31:37.900Z,97531.66
2022-10-07T17:34:06.191Z,97531.91
2022-10-07T17:36:35.362Z,97534.34
2022-10-07T17:39:02.829Z,97540.81
2022-10-07T17:41:32.112Z,97534.34
2022-10-07T17:44:02.782Z,97527.31
2022-10-07T17:46:32.509Z,97531.91
2022-10-07T17:49:01.766Z,97538.56
2022-10-07T17:51:31.103Z,97531.06
2022-10-07T17:53:59.672Z,97532.50
2022-10-07T17:56:27.924Z,97528.72
2022-10-07T17:58:56.455Z,97528.13
2022-10-07T18:01:25.694Z,97525.16
2022-10-07T18:03:54.633Z,97529.78
2022-10-07T18:06:24.535Z,97524.38
2022-10-07T18:08:52.197Z,97518.41
2022-10-07T18:11:19.762Z,97525.75
2022-10-07T18:13:47.164Z,97526.13
2022-10-07T18:16:14.966Z,97519.41
2022-10-07T18:18:43.502Z,97513.22
2022-10-07T18:21:11.405Z,97518.59
2022-10-07T18:23:41.009Z,97512.38
2022-10-07T18:26:11.659Z,97509.22
2022-10-07T18:28:39.423Z,97510.28
2022-10-07T18:31:12.033Z,97507.59
2022-10-07T18:33:40.141Z,97508.38
2022-10-07T18:36:10.180Z,97511.31
2022-10-07T18:38:40.900Z,97502.63
2022-10-07T18:41:09.947Z,97503.22
2022-10-07T18:43:37.825Z,97509.44
2022-10-07T18:46:08.810Z,97504.63
2022-10-07T18:48:40.076Z,97506.75
2022-10-07T18:51:07.884Z,97508.59
2022-10-07T18:53:37.853Z,97500.75
2022-10-07T18:56:08.366Z,97498.78
2022-10-07T18:58:36.705Z,97497.38
2022-10-07T19:01:07.005Z,97494.66
2022-10-07T19:03:34.596Z,97496.78
2022-10-07T19:06:06.425Z,97491.56
2022-10-07T19:08:34.213Z,97487.41
2022-10-07T19:11:06.766Z,97477.13
2022-10-07T19:13:36.034Z,97480.31
2022-10-07T19:16:03.949Z,97480.31
2022-10-07T19:18:33.892Z,97478.31
2022-10-07T19:21:01.471Z,97473.41
2022-10-07T19:23:29.368Z,97470.78
2022-10-07T19:25:57.212Z,97467.28
2022-10-07T19:28:26.946Z,97463.53
2022-10-07T19:30:54.692Z,97470.19
2022-10-07T19:33:22.409Z,97459.16
2022-10-07T19:35:53.952Z,97460.59
2022-10-07T19:38:21.942Z,97465.63
2022-10-07T19:40:49.307Z,97461.28
2022-10-07T19:43:16.818Z,97452.50
2022-10-07T19:45:45.680Z,97457.91
2022-10-07T19:48:14.402Z,97462.69
2022-10-07T19:50:42.078Z,97451.66
2022-10-07T19:53:09.435Z,97456.59
2022-10-07T19:55:36.842Z,97443.06
2022-10-07T19:58:04.304Z,97447.53
2022-10-07T20:00:31.723Z,97445.06
2022-10-07T20:03:00.567Z,97446.63
2022-10-07T20:05:29.624Z,97454.34
2022-10-07T20:07:58.015Z,97447.88
2022-10-07T20:10:26.685Z,97447.09
2022-10-07T20:12:54.174Z,97448.38
2022-10-07T20:15:21.593Z,97448.16
2022-10-07T20:17:49.220Z,97446.03
2022-10-07T20:20:18.468Z,97442.97
2022-10-07T20:22:49.287Z,97441.53
2022-10-07T20:25:17.104Z,97443.19
2022-10-07T20:27:44.813Z,97442.50
2022-10-07T20:30:17.841Z,97450.84
2022-10-07T20:32:45.643Z,97447.53
2022-10-07T20:35:13.235Z,97444.47
2022-10-07T20:37:41.988Z,97446.34
2022-10-07T20:40:10.140Z,97448.84
2022-10-07T20:42:37.504Z,97433.66
2022-10-07T20:45:05.649Z,97440.94
2022-10-07T20:47:35.988Z,97438.47
2022-10-07T20:50:03.819Z,97434.50
2022-10-07T20:52:34.450Z,97438.03
2022-10-07T20:55:03.514Z,97439.91
2022-10-07T20:57:31.425Z,97435.19
2022-10-07T20:59:58.795Z,97437.41
2022-10-07T21:02:26.777Z,97434.72
2022-10-07T21:04:54.239Z,97430.03
2022-10-07T21:07:21.762Z,97432.00
2022-10-07T21:09:49.127Z,97440.03
2022-10-07T21:12:18.432Z,97437.56
2022-10-07T21:14:45.886Z,97420.16
2022-10-07T21:17:13.634Z,97425.09
2022-10-07T21:19:40.967Z,97431.31
2022-10-07T21:22:08.590Z,97424.28
2022-10-07T21:24:36.005Z,97431.09
2022-10-07T21:27:04.619Z,97418.28
2022-10-07T21:29:37.443Z,97429.22
2022-10-07T21:32:07.033Z,97428.97
2022-10-07T21:34:34.422Z,97422.28
2022-10-07T21:37:01.844Z,97421.47
2022-10-07T21:39:29.421Z,97413.59
2022-10-07T21:41:56.824Z,97421.81
2022-10-07T21:44:24.466Z,97418.44
2022-10-07T21:46:53.350Z,97413.25
2022-10-07T21:49:21.146Z,97416.06
2022-10-07T21:51:48.543Z,97414.31
2022-10-07T21:54:15.987Z,97404.28
2022-10-07T21:56:43.672Z,97401.84
2022-10-07T21:59:11.052Z,97412.19
2022-10-07T22:01:38.440Z,97412.19
2022-10-07T22:04:07.225Z,97406.56
2022-10-07T22:06:34.621Z,97405.13
2022-10-07T22:09:04.027Z,97405.59
2022-10-07T22:11:31.938Z,97406.63
2022-10-07T22:13:59.283Z,97394.19
2022-10-07T22:16:27.171Z,97404.28
2022-10-07T22:18:55.145Z,97399.59
2022-10-07T22:21:27.175Z,97405.13
2022-10-07T22:23:56.338Z,97397.94
2022-10-07T22:26:26.145Z,97394.44
2022-10-07T22:28:53.915Z,97385.97
2022-10-07T22:31:22.883Z,97394.19
2022-10-07T22:33:51.990Z,97396.09
2022-10-07T22:36:19.967Z,97383.03
2022-10-07T22:38:49.172Z,97383.03
2022-10-07T22:41:17.952Z,97385.28
2022-10-07T22:43:47.190Z,97379.03
2022-10-07T22:46:16.939Z,97374.22
2022-10-07T22:48:44.484Z,97374.22
2022-10-07T22:51:13.430Z,97366.94
2022-10-07T22:53:42.191Z,97360.13
2022-10-07T22:56:12.509Z,97366.69
2022-10-07T22:58:41.285Z,97368.13
2022-10-07T23:01:11.060Z,97369.41
2022-10-07T23:03:38.916Z,97363.53
2022-10-07T23:06:07.035Z,97368.34
2022-10-07T23:08:34.941Z,97367.50
2022-10-07T23:11:03.801Z,97360.03
2022-10-07T23:13:34.639Z,97360.81
2022-10-07T23:16:04.723Z,97362.47
2022-10-07T23:18:32.982Z,97366.69
2022-10-07T23:21:00.949Z,97364.59
2022-10-07T23:23:28.938Z,97361.06
2022-10-07T23:25:56.870Z,97366.47
2022-10-07T23:28:24.398Z,97363.16
2022-10-07T23:30:53.855Z,97365.84
2022-10-07T23:33:21.515Z,97350.97
2022-10-07T23:35:48.828Z,97359.41
2022-10-07T23:38:16.249Z,97359.19
2022-10-07T23:40:43.597Z,97367.97
2022-10-07T23:43:10.922Z,97346.50
2022-10-07T23:45:38.250Z,97347.56
2022-10-07T23:48:07.600Z,97353.41
2022-10-07T23:50:34.977Z,97356.13
2022-10-07T23:53:02.307Z,97354.25
2022-10-07T23:55:29.649Z,97350.50
2022-10-07T23:57:56.988Z,97353.66
